Hulen, Kentucky
Current Conditions -  °F | °C
As of 4:55 PM on Thursday 27 Nov 2014 (Local Time) from KI35 Reporting Station
Overcast Overcast  
Wind Chill: 30°   Ceiling: 1900
Heat Index: 30°   Visibility: 2.5mi
Dew Point: 25°   Wind: 3mph
Humidity: 80%   Direction: 280°W
Pressure: 30.3"   Gusts: NA
Location:  36.79°N, 83.52°W
Report Text: KI35 272155Z AUTO 28003KT 2 1/2SM BKN019 OVC026 M01/M04 A3030 RMK AO1
Loading
Personal Weather Stations






























Interactive Weather Map New forecast layout! Learn more

10-Day Weather Forecast

Advertisements
Track Severe Weather on mobile